createdAt,value
2022-08-08T00:00:56.386Z,101442.09
2022-08-08T00:02:03.696Z,101433.69
2022-08-08T00:03:20.305Z,101430.75
2022-08-08T00:04:37.894Z,101433.34
2022-08-08T00:06:34.052Z,101437.38
2022-08-08T00:07:57.297Z,101440.88
2022-08-08T00:09:12.203Z,101438.78
2022-08-08T00:10:49.733Z,101430.72
2022-08-08T00:12:09.415Z,101439.19
2022-08-08T00:14:16.633Z,101437.84
2022-08-08T00:15:17.687Z,101438.31
2022-08-08T00:16:39.447Z,101440.50
2022-08-08T00:18:03.038Z,101439.91
2022-08-08T00:19:22.772Z,101441.22
2022-08-08T00:20:53.148Z,101438.66
2022-08-08T00:22:06.010Z,101436.75
2022-08-08T00:23:20.907Z,101437.88
2022-08-08T00:24:30.620Z,101434.75
2022-08-08T00:25:46.583Z,101432.66
2022-08-08T00:26:57.264Z,101439.59
2022-08-08T00:28:06.674Z,101436.88
2022-08-08T00:29:44.986Z,101450.72
2022-08-08T00:31:01.035Z,101443.75
2022-08-08T00:32:38.406Z,101445.31
2022-08-08T00:34:18.738Z,101442.38
2022-08-08T00:35:37.537Z,101442.09
2022-08-08T00:36:51.469Z,101438.94
2022-08-08T00:38:05.626Z,101439.56
2022-08-08T00:41:11.653Z,101431.72
2022-08-08T00:41:12.460Z,101434.28
2022-08-08T00:42:34.661Z,101445.88
2022-08-08T00:43:56.308Z,101435.38
2022-08-08T00:45:32.223Z,101435.63
2022-08-08T00:46:57.912Z,101431.00
2022-08-08T00:48:30.138Z,101438.19
2022-08-08T00:50:00.368Z,101440.72
2022-08-08T00:51:38.803Z,101440.06
2022-08-08T00:52:51.350Z,101435.56
2022-08-08T00:54:13.867Z,101433.84
2022-08-08T00:55:53.193Z,101438.34
2022-08-08T00:57:19.704Z,101444.88
2022-08-08T00:58:30.767Z,101441.84
2022-08-08T01:00:04.834Z,101436.97
2022-08-08T01:03:58.681Z,101446.50
2022-08-08T01:04:13.838Z,101442.44
2022-08-08T01:05:58.773Z,101445.25
2022-08-08T01:07:18.540Z,101438.94
2022-08-08T01:09:01.717Z,101435.31
2022-08-08T01:11:01.550Z,101438.53
2022-08-08T01:12:43.170Z,101443.16
2022-08-08T01:13:58.381Z,101437.41
2022-08-08T01:15:43.590Z,101433.75
2022-08-08T01:17:11.781Z,101438.81
2022-08-08T01:18:25.505Z,101442.56
2022-08-08T01:20:03.767Z,101432.28
2022-08-08T01:22:07.219Z,101434.69
2022-08-08T01:24:02.993Z,101438.75
2022-08-08T01:25:26.081Z,101434.44
2022-08-08T01:27:07.257Z,101433.44
2022-08-08T01:28:39.052Z,101436.28
2022-08-08T01:30:21.607Z,101435.25
2022-08-08T01:32:12.760Z,101438.06
2022-08-08T01:33:23.746Z,101437.25
2022-08-08T01:34:41.799Z,101438.06
2022-08-08T01:36:14.623Z,101440.44
2022-08-08T01:37:56.338Z,101437.00
2022-08-08T01:39:49.183Z,101440.75
2022-08-08T01:41:22.258Z,101446.63
2022-08-08T01:42:59.903Z,101442.25
2022-08-08T01:44:26.484Z,101446.63
2022-08-08T01:45:54.336Z,101448.41
2022-08-08T01:48:15.681Z,101442.72
2022-08-08T01:48:46.163Z,101444.72
2022-08-08T01:50:17.114Z,101443.56
2022-08-08T01:52:43.454Z,101442.72
2022-08-08T01:54:07.468Z,101437.88
2022-08-08T01:55:46.331Z,101444.41
2022-08-08T01:56:34.311Z,101441.13
2022-08-08T01:58:11.158Z,101446.22
2022-08-08T01:59:23.802Z,101449.63
2022-08-08T02:01:17.295Z,101446.16
2022-08-08T02:02:49.616Z,101445.91
2022-08-08T02:03:58.350Z,101449.00
2022-08-08T02:05:56.392Z,101447.97
2022-08-08T02:07:13.702Z,101444.72
2022-08-08T02:08:45.532Z,101447.25
2022-08-08T02:10:29.339Z,101446.03
2022-08-08T02:11:59.549Z,101441.94
2022-08-08T02:13:54.505Z,101448.13
2022-08-08T02:15:03.281Z,101439.44
2022-08-08T02:16:21.288Z,101443.38
2022-08-08T02:17:42.538Z,101452.75
2022-08-08T02:19:10.008Z,101444.50
2022-08-08T02:21:12.963Z,101445.97
2022-08-08T02:22:55.291Z,101449.47
2022-08-08T02:24:04.806Z,101450.13
2022-08-08T02:25:21.728Z,101450.78
2022-08-08T02:26:30.481Z,101448.94
2022-08-08T02:27:57.994Z,101452.19
2022-08-08T02:29:20.957Z,101445.38
2022-08-08T02:30:49.711Z,101446.63
2022-08-08T02:32:22.398Z,101440.19
2022-08-08T02:34:08.792Z,101440.00
2022-08-08T02:36:04.129Z,101445.09
2022-08-08T02:37:53.359Z,101443.59
2022-08-08T02:39:40.822Z,101449.81
2022-08-08T02:40:33.751Z,101445.28
2022-08-08T02:41:58.780Z,101444.97
2022-08-08T02:44:34.862Z,101441.38
2022-08-08T02:44:57.475Z,101443.44
2022-08-08T02:46:28.604Z,101436.66
2022-08-08T02:48:03.475Z,101442.63
2022-08-08T02:49:47.812Z,101442.97
2022-08-08T02:51:46.314Z,101445.84
2022-08-08T02:52:59.380Z,101444.22
2022-08-08T02:54:25.952Z,101449.91
2022-08-08T02:55:48.627Z,101446.59
2022-08-08T02:57:44.562Z,101449.50
2022-08-08T02:58:53.726Z,101450.88
2022-08-08T03:00:47.103Z,101448.47
2022-08-08T03:02:30.064Z,101451.03
2022-08-08T03:05:04.439Z,101460.81
2022-08-08T03:05:45.248Z,101451.84
2022-08-08T03:07:26.876Z,101450.97
2022-08-08T03:09:05.723Z,101455.13
2022-08-08T03:10:33.757Z,101461.47
2022-08-08T03:12:16.615Z,101462.47
2022-08-08T03:15:57.188Z,101459.06
2022-08-08T03:15:57.289Z,101457.09
2022-08-08T03:16:57.766Z,101464.00
2022-08-08T03:18:07.613Z,101457.63
2022-08-08T03:19:21.679Z,101458.94
2022-08-08T03:20:24.888Z,101463.00
2022-08-08T03:21:54.512Z,101458.03
2022-08-08T03:22:56.901Z,101465.63
2022-08-08T03:24:02.138Z,101458.41
2022-08-08T03:25:09.117Z,101461.38
2022-08-08T03:26:22.932Z,101465.41
2022-08-08T03:27:49.664Z,101464.38
2022-08-08T03:29:04.235Z,101466.06
2022-08-08T03:30:20.425Z,101468.63
2022-08-08T03:32:06.451Z,101466.78
2022-08-08T03:33:56.583Z,101463.44
2022-08-08T03:34:45.643Z,101467.22
2022-08-08T03:35:50.877Z,101472.28
2022-08-08T03:36:57.007Z,101466.72
2022-08-08T03:38:56.356Z,101472.91
2022-08-08T03:39:24.292Z,101473.94
2022-08-08T03:40:29.123Z,101470.78
2022-08-08T03:42:11.542Z,101469.41
2022-08-08T03:42:56.208Z,101471.44
2022-08-08T03:44:01.549Z,101461.66
2022-08-08T03:46:05.821Z,101476.91
2022-08-08T03:46:46.429Z,101479.53
2022-08-08T03:47:57.334Z,101471.44
2022-08-08T03:49:31.016Z,101476.25
2022-08-08T03:50:26.861Z,101484.41
2022-08-08T03:51:51.013Z,101489.88
2022-08-08T03:52:53.078Z,101480.22
2022-08-08T03:53:57.331Z,101486.44
2022-08-08T03:55:02.019Z,101484.41
2022-08-08T03:56:31.541Z,101495.69
2022-08-08T03:58:30.484Z,101491.72
2022-08-08T03:58:58.249Z,101486.47
2022-08-08T04:00:11.072Z,101487.13
2022-08-08T04:01:24.671Z,101483.63
2022-08-08T04:02:36.638Z,101492.31
2022-08-08T04:03:58.723Z,101487.78
2022-08-08T04:05:10.148Z,101491.50
2022-08-08T04:06:15.427Z,101500.41
2022-08-08T04:07:21.165Z,101486.56
2022-08-08T04:08:32.917Z,101498.44
2022-08-08T04:09:59.332Z,101501.72
2022-08-08T04:11:10.976Z,101491.66
2022-08-08T04:12:19.728Z,101504.88
2022-08-08T04:13:22.893Z,101497.78
2022-08-08T04:14:33.789Z,101499.00
2022-08-08T04:15:39.037Z,101497.44
2022-08-08T04:16:41.871Z,101500.19
2022-08-08T04:17:59.068Z,101499.88
2022-08-08T04:19:01.980Z,101499.25
2022-08-08T04:20:06.042Z,101503.44
2022-08-08T04:21:11.133Z,101503.28
2022-08-08T04:22:16.573Z,101503.91
2022-08-08T04:23:19.002Z,101505.47
2022-08-08T04:24:28.635Z,101502.53
2022-08-08T04:25:38.144Z,101505.88
2022-08-08T04:26:57.065Z,101507.44
2022-08-08T04:28:10.514Z,101505.31
2022-08-08T04:29:22.206Z,101509.66
2022-08-08T04:30:24.584Z,101509.66
2022-08-08T04:31:56.696Z,101504.91
2022-08-08T04:32:51.208Z,101506.69
2022-08-08T04:33:56.489Z,101508.28
2022-08-08T04:34:58.684Z,101501.34
2022-08-08T04:36:06.347Z,101504.03
2022-08-08T04:37:08.431Z,101509.38
2022-08-08T04:38:10.675Z,101513.16
2022-08-08T04:39:48.143Z,101511.19
2022-08-08T04:40:53.568Z,101516.50
2022-08-08T04:41:57.308Z,101514.09
2022-08-08T04:43:01.526Z,101515.06
2022-08-08T04:44:10.515Z,101509.28
2022-08-08T04:45:15.518Z,101510.84
2022-08-08T04:46:18.580Z,101517.78
2022-08-08T04:47:24.445Z,101509.47
2022-08-08T04:48:26.841Z,101511.16
2022-08-08T04:49:58.623Z,101510.13
2022-08-08T04:50:50.839Z,101506.00
2022-08-08T04:51:58.302Z,101519.63
2022-08-08T04:53:04.990Z,101517.22
2022-08-08T04:54:40.135Z,101511.00
2022-08-08T04:55:55.218Z,101517.44
2022-08-08T04:56:58.116Z,101524.56
2022-08-08T04:58:00.148Z,101517.09
2022-08-08T04:59:02.209Z,101515.19
2022-08-08T05:00:06.922Z,101514.16
2022-08-08T05:01:11.276Z,101515.94
2022-08-08T05:02:30.612Z,101513.47
2022-08-08T05:04:10.049Z,101521.34
2022-08-08T05:04:55.313Z,101523.88
2022-08-08T05:06:12.535Z,101518.25
2022-08-08T05:07:18.650Z,101523.06
2022-08-08T05:08:20.753Z,101522.31
2022-08-08T05:09:29.146Z,101524.84
2022-08-08T05:10:31.265Z,101531.09
2022-08-08T05:11:38.907Z,101524.16
2022-08-08T05:12:42.949Z,101525.25
2022-08-08T05:14:02.534Z,101530.78
2022-08-08T05:15:08.207Z,101531.47
2022-08-08T05:16:52.484Z,101528.47
2022-08-08T05:17:53.986Z,101530.88
2022-08-08T05:18:58.826Z,101531.56
2022-08-08T05:20:11.367Z,101526.97
2022-08-08T05:21:19.412Z,101532.06
2022-08-08T05:22:22.741Z,101525.69
2022-08-08T05:23:26.182Z,101531.84
2022-08-08T05:24:32.359Z,101531.72
2022-08-08T05:25:40.480Z,101526.88
2022-08-08T05:26:46.859Z,101526.47
2022-08-08T05:27:51.051Z,101529.88
2022-08-08T05:29:04.992Z,101531.88
2022-08-08T05:30:13.622Z,101533.81
2022-08-08T05:32:04.461Z,101538.88
2022-08-08T05:32:42.624Z,101533.31
2022-08-08T05:33:49.464Z,101536.63
2022-08-08T05:34:53.648Z,101534.91
2022-08-08T05:36:02.418Z,101537.53
2022-08-08T05:37:07.597Z,101536.75
2022-08-08T05:38:31.991Z,101536.44
2022-08-08T05:39:46.916Z,101539.00
2022-08-08T05:40:57.614Z,101542.91
2022-08-08T05:42:00.826Z,101538.78
2022-08-08T05:43:38.067Z,101538.13
2022-08-08T05:44:46.230Z,101534.00
2022-08-08T05:45:53.049Z,101533.69
2022-08-08T05:47:03.252Z,101539.81
2022-08-08T05:48:09.702Z,101533.09
2022-08-08T05:49:14.646Z,101537.91
2022-08-08T05:50:18.718Z,101537.66
2022-08-08T05:51:22.111Z,101540.91
2022-08-08T05:52:35.598Z,101537.94
2022-08-08T05:54:26.012Z,101543.28
2022-08-08T05:55:04.518Z,101543.03
2022-08-08T05:56:15.454Z,101540.78
2022-08-08T05:58:05.662Z,101536.06
2022-08-08T05:58:57.929Z,101538.44
2022-08-08T06:00:25.225Z,101549.38
2022-08-08T06:01:57.033Z,101550.69
2022-08-08T06:03:17.390Z,101550.47
2022-08-08T06:04:29.964Z,101547.56
2022-08-08T06:05:36.434Z,101550.41
2022-08-08T06:06:48.133Z,101549.88
2022-08-08T06:08:01.997Z,101553.06
2022-08-08T06:10:00.360Z,101543.59
2022-08-08T06:10:33.059Z,101551.25
2022-08-08T06:11:39.669Z,101548.28
2022-08-08T06:12:49.173Z,101544.78
2022-08-08T06:13:51.983Z,101548.22
2022-08-08T06:15:00.479Z,101547.00
2022-08-08T06:16:03.264Z,101546.59
2022-08-08T06:17:32.222Z,101556.59
2022-08-08T06:18:51.394Z,101550.00
2022-08-08T06:19:55.231Z,101551.69
2022-08-08T06:20:59.512Z,101547.41
2022-08-08T06:22:32.214Z,101549.97
2022-08-08T06:23:52.573Z,101545.94
2022-08-08T06:24:53.510Z,101549.44
2022-08-08T06:26:39.082Z,101550.63
2022-08-08T06:27:48.310Z,101563.16
2022-08-08T06:29:02.931Z,101551.59
2022-08-08T06:30:26.469Z,101556.66
2022-08-08T06:31:52.855Z,101557.78
2022-08-08T06:33:00.883Z,101563.06
2022-08-08T06:34:25.953Z,101553.97
2022-08-08T06:36:04.711Z,101556.75
2022-08-08T06:36:57.033Z,101560.81
2022-08-08T06:38:13.995Z,101554.41
2022-08-08T06:39:22.340Z,101551.53
2022-08-08T06:40:28.906Z,101554.56
2022-08-08T06:41:39.138Z,101555.25
2022-08-08T06:42:53.661Z,101553.72
2022-08-08T06:44:03.115Z,101551.69
2022-08-08T06:45:09.519Z,101552.56
2022-08-08T06:46:12.929Z,101556.16
2022-08-08T06:47:22.109Z,101550.66
2022-08-08T06:48:26.711Z,101547.50
2022-08-08T06:49:55.685Z,101552.56
2022-08-08T06:50:55.601Z,101549.09
2022-08-08T06:51:59.593Z,101546.94
2022-08-08T06:53:09.709Z,101551.84
2022-08-08T06:54:18.015Z,101537.28
2022-08-08T06:55:21.747Z,101550.59
2022-08-08T06:56:25.055Z,101549.25
2022-08-08T06:57:29.441Z,101555.16
2022-08-08T06:58:50.061Z,101556.84
2022-08-08T07:00:12.462Z,101561.13
2022-08-08T07:02:16.720Z,101548.94
2022-08-08T07:02:51.633Z,101557.06
2022-08-08T07:04:37.225Z,101553.66
2022-08-08T07:06:01.984Z,101552.94
2022-08-08T07:07:12.358Z,101551.44
2022-08-08T07:08:25.341Z,101549.22
2022-08-08T07:09:56.470Z,101560.03
2022-08-08T07:11:05.514Z,101548.50
2022-08-08T07:12:14.679Z,101552.31
2022-08-08T07:13:22.910Z,101557.47
2022-08-08T07:14:45.115Z,101554.78
2022-08-08T07:16:10.813Z,101544.63
2022-08-08T07:17:19.756Z,101559.25
2022-08-08T07:18:49.278Z,101554.47
2022-08-08T07:20:03.056Z,101558.06
2022-08-08T07:21:18.524Z,101558.41
2022-08-08T07:22:40.082Z,101554.75
2022-08-08T07:23:57.509Z,101558.53
2022-08-08T07:25:11.101Z,101554.53
2022-08-08T07:26:32.983Z,101555.69
2022-08-08T07:28:01.811Z,101556.22
2022-08-08T07:29:07.936Z,101561.03
2022-08-08T07:30:16.876Z,101562.78
2022-08-08T07:31:28.393Z,101552.81
2022-08-08T07:32:31.625Z,101556.19
2022-08-08T07:33:37.577Z,101554.31
2022-08-08T07:35:00.306Z,101559.03
2022-08-08T07:36:05.460Z,101555.88
2022-08-08T07:37:13.539Z,101552.75
2022-08-08T07:38:24.704Z,101553.41
2022-08-08T07:39:45.836Z,101560.25
2022-08-08T07:40:59.164Z,101559.63
2022-08-08T07:42:19.024Z,101548.38
2022-08-08T07:43:32.105Z,101560.97
2022-08-08T07:44:43.735Z,101561.72
2022-08-08T07:46:05.153Z,101561.72
2022-08-08T07:47:12.976Z,101555.28
2022-08-08T07:48:19.906Z,101555.72
2022-08-08T07:49:28.661Z,101556.81
2022-08-08T07:50:37.294Z,101559.94
2022-08-08T07:51:45.141Z,101555.22
2022-08-08T07:53:06.346Z,101560.28
2022-08-08T07:54:27.228Z,101559.22
2022-08-08T07:55:36.391Z,101557.09
2022-08-08T07:57:08.832Z,101559.75
2022-08-08T07:58:25.947Z,101562.00
2022-08-08T07:59:37.697Z,101550.97
2022-08-08T08:00:51.099Z,101557.38
2022-08-08T08:02:37.199Z,101564.09
2022-08-08T08:03:41.250Z,101564.63
2022-08-08T08:04:55.976Z,101569.09
2022-08-08T08:06:06.427Z,101564.81
2022-08-08T08:07:16.492Z,101566.53
2022-08-08T08:08:20.961Z,101563.47
2022-08-08T08:09:26.819Z,101567.44
2022-08-08T08:10:35.990Z,101560.53
2022-08-08T08:11:51.917Z,101563.19
2022-08-08T08:13:25.906Z,101560.09
2022-08-08T08:15:05.007Z,101561.44
2022-08-08T08:16:13.828Z,101559.09
2022-08-08T08:17:20.983Z,101567.72
2022-08-08T08:18:31.648Z,101561.38
2022-08-08T08:19:45.517Z,101562.06
2022-08-08T08:20:53.765Z,101563.78
2022-08-08T08:22:00.796Z,101563.38
2022-08-08T08:23:12.405Z,101564.38
2022-08-08T08:24:18.654Z,101566.84
2022-08-08T08:25:42.918Z,101558.03
2022-08-08T08:26:46.798Z,101561.16
2022-08-08T08:27:55.070Z,101574.16
2022-08-08T08:28:57.204Z,101566.69
2022-08-08T08:29:59.356Z,101561.00
2022-08-08T08:31:04.942Z,101563.97
2022-08-08T08:32:11.060Z,101564.63
2022-08-08T08:33:13.986Z,101565.63
2022-08-08T08:34:16.272Z,101564.31
2022-08-08T08:35:29.825Z,101571.09
2022-08-08T08:36:51.278Z,101572.75
2022-08-08T08:38:15.872Z,101569.59
2022-08-08T08:39:22.950Z,101561.94
2022-08-08T08:40:29.305Z,101565.53
2022-08-08T08:41:37.222Z,101566.94
2022-08-08T08:42:40.289Z,101570.41
2022-08-08T08:43:49.317Z,101566.63
2022-08-08T08:44:51.855Z,101570.72
2022-08-08T08:45:57.781Z,101561.28
2022-08-08T08:47:03.882Z,101556.94
2022-08-08T08:48:10.658Z,101562.66
2022-08-08T08:49:22.200Z,101572.59
2022-08-08T08:50:33.108Z,101569.69
2022-08-08T08:51:50.909Z,101571.94
2022-08-08T08:52:59.790Z,101564.44
2022-08-08T08:54:09.605Z,101565.44
2022-08-08T08:55:15.317Z,101566.53
2022-08-08T08:56:24.158Z,101568.09
2022-08-08T08:57:34.635Z,101568.06
2022-08-08T08:58:46.899Z,101567.59
2022-08-08T08:59:59.297Z,101569.31
2022-08-08T09:01:08.605Z,101562.22
2022-08-08T09:02:20.811Z,101563.75
2022-08-08T09:03:45.617Z,101565.13
2022-08-08T09:04:56.055Z,101570.94
2022-08-08T09:05:59.619Z,101568.72
2022-08-08T09:07:02.703Z,101570.13
2022-08-08T09:08:20.777Z,101576.06
2022-08-08T09:09:39.157Z,101569.75
2022-08-08T09:10:55.658Z,101570.00
2022-08-08T09:12:08.046Z,101575.28
2022-08-08T09:13:13.568Z,101577.09
2022-08-08T09:14:22.611Z,101574.72
2022-08-08T09:15:40.720Z,101576.38
2022-08-08T09:16:45.355Z,101570.72
2022-08-08T09:17:55.871Z,101569.97
2022-08-08T09:19:02.440Z,101575.19
2022-08-08T09:21:56.514Z,101569.53
2022-08-08T09:21:59.385Z,101575.06
2022-08-08T09:22:54.133Z,101566.72
2022-08-08T09:24:02.288Z,101563.97
2022-08-08T09:25:07.892Z,101573.84
2022-08-08T09:26:25.005Z,101574.88
2022-08-08T09:27:41.807Z,101563.66
2022-08-08T09:28:52.332Z,101566.66
2022-08-08T09:30:10.739Z,101569.81
2022-08-08T09:31:56.687Z,101569.38
2022-08-08T09:33:54.022Z,101571.03
2022-08-08T09:34:34.458Z,101575.13
2022-08-08T09:35:50.098Z,101571.97
2022-08-08T09:37:34.079Z,101568.00
2022-08-08T09:39:00.051Z,101574.06
2022-08-08T09:40:11.170Z,101574.81
2022-08-08T09:41:21.308Z,101567.72
2022-08-08T09:42:28.479Z,101579.59
2022-08-08T09:43:41.110Z,101573.69
2022-08-08T09:45:20.627Z,101566.16
2022-08-08T09:46:39.002Z,101569.19
2022-08-08T09:48:04.366Z,101564.75
2022-08-08T09:49:41.205Z,101564.06
2022-08-08T09:50:34.890Z,101559.09
2022-08-08T09:51:41.518Z,101562.34
2022-08-08T09:53:22.269Z,101558.66
2022-08-08T09:54:40.773Z,101555.44
2022-08-08T09:56:04.812Z,101557.94
2022-08-08T09:57:16.225Z,101550.38
2022-08-08T09:58:27.787Z,101550.38
2022-08-08T10:00:01.665Z,101551.06
2022-08-08T10:01:59.363Z,101543.47
2022-08-08T10:02:48.288Z,101544.31
2022-08-08T10:03:55.932Z,101550.50
2022-08-08T10:05:26.650Z,101544.91
2022-08-08T10:06:42.723Z,101547.78
2022-08-08T10:07:59.887Z,101541.22
2022-08-08T10:09:02.959Z,101543.81
2022-08-08T10:10:08.544Z,101547.13
2022-08-08T10:12:27.157Z,101548.06
2022-08-08T10:12:54.286Z,101544.28
2022-08-08T10:14:06.091Z,101539.84
2022-08-08T10:15:18.342Z,101539.78
2022-08-08T10:16:21.678Z,101536.13
2022-08-08T10:17:56.329Z,101544.53
2022-08-08T10:19:04.155Z,101543.13
2022-08-08T10:20:06.534Z,101545.00
2022-08-08T10:21:26.212Z,101545.16
2022-08-08T10:22:34.190Z,101539.63
2022-08-08T10:23:47.043Z,101538.69
2022-08-08T10:25:01.329Z,101540.44
2022-08-08T10:26:03.784Z,101540.91
2022-08-08T10:27:06.948Z,101539.22
2022-08-08T10:28:21.696Z,101539.00
2022-08-08T10:29:58.688Z,101536.56
2022-08-08T10:31:46.723Z,101540.19
2022-08-08T10:32:54.369Z,101539.69
2022-08-08T10:34:18.791Z,101527.19
2022-08-08T10:36:07.234Z,101540.50
2022-08-08T10:36:46.742Z,101538.66
2022-08-08T10:38:02.247Z,101531.41
2022-08-08T10:39:09.469Z,101528.81
2022-08-08T10:40:16.144Z,101536.31
2022-08-08T10:41:25.556Z,101537.22
2022-08-08T10:42:44.887Z,101526.06
2022-08-08T10:43:51.858Z,101534.16
2022-08-08T10:45:01.750Z,101523.72
2022-08-08T10:46:03.729Z,101528.78
2022-08-08T10:47:14.059Z,101532.75
2022-08-08T10:48:16.761Z,101521.19
2022-08-08T10:50:00.720Z,101525.41
2022-08-08T10:50:46.939Z,101524.09
2022-08-08T10:51:51.518Z,101519.81
2022-08-08T10:53:00.985Z,101520.28
2022-08-08T10:54:03.541Z,101519.81
2022-08-08T10:55:09.185Z,101515.03
2022-08-08T10:56:10.899Z,101521.00
2022-08-08T10:57:41.353Z,101522.31
2022-08-08T10:58:58.557Z,101522.59
2022-08-08T11:00:00.723Z,101520.75
2022-08-08T11:01:10.697Z,101513.22
2022-08-08T11:02:14.789Z,101513.88
2022-08-08T11:03:18.711Z,101515.91
2022-08-08T11:04:53.018Z,101520.13
2022-08-08T11:06:00.599Z,101520.69
2022-08-08T11:07:06.830Z,101517.19
2022-08-08T11:08:38.537Z,101519.13
2022-08-08T11:09:47.157Z,101523.28
2022-08-08T11:11:00.289Z,101508.38
2022-08-08T11:12:13.440Z,101522.72
2022-08-08T11:13:30.419Z,101520.88
2022-08-08T11:14:48.642Z,101516.00
2022-08-08T11:15:58.973Z,101517.72
2022-08-08T11:17:03.875Z,101508.78
2022-08-08T11:18:08.404Z,101512.28
2022-08-08T11:19:12.311Z,101521.00
2022-08-08T11:20:18.192Z,101517.41
2022-08-08T11:21:24.682Z,101512.31
2022-08-08T11:22:41.861Z,101508.13
2022-08-08T11:23:47.123Z,101507.09
2022-08-08T11:25:14.486Z,101503.47
2022-08-08T11:26:27.465Z,101512.47
2022-08-08T11:27:37.299Z,101507.38
2022-08-08T11:28:40.826Z,101503.00
2022-08-08T11:30:04.505Z,101504.53
2022-08-08T11:31:09.835Z,101498.91
2022-08-08T11:32:13.350Z,101500.81
2022-08-08T11:33:15.976Z,101507.28
2022-08-08T11:34:23.529Z,101509.28
2022-08-08T11:35:43.377Z,101506.38
2022-08-08T11:36:51.028Z,101502.75
2022-08-08T11:38:37.126Z,101509.84
2022-08-08T11:39:20.045Z,101503.19
2022-08-08T11:40:26.577Z,101505.50
2022-08-08T11:41:33.610Z,101500.91
2022-08-08T11:42:37.086Z,101493.19
2022-08-08T11:43:42.101Z,101491.03
2022-08-08T11:44:45.938Z,101491.13
2022-08-08T11:46:14.201Z,101498.75
2022-08-08T11:47:17.177Z,101496.03
2022-08-08T11:48:20.459Z,101497.38
2022-08-08T11:49:23.652Z,101490.56
2022-08-08T11:50:26.104Z,101489.66
2022-08-08T11:51:40.394Z,101486.38
2022-08-08T11:52:53.414Z,101492.53
2022-08-08T11:53:59.197Z,101496.28
2022-08-08T11:55:26.615Z,101498.25
2022-08-08T11:56:35.003Z,101496.09
2022-08-08T11:57:36.902Z,101490.44
2022-08-08T11:58:38.660Z,101492.91
2022-08-08T12:00:05.639Z,101500.13
2022-08-08T12:01:18.084Z,101501.13
2022-08-08T12:02:41.856Z,101495.91
2022-08-08T12:03:54.996Z,101490.53
2022-08-08T12:05:02.316Z,101488.94
2022-08-08T12:06:15.049Z,101491.16
2022-08-08T12:07:17.940Z,101492.63
2022-08-08T12:08:38.480Z,101489.81
2022-08-08T12:09:59.433Z,101498.31
2022-08-08T12:11:05.204Z,101493.66
2022-08-08T12:12:07.256Z,101484.91
2022-08-08T12:13:12.103Z,101492.25
2022-08-08T12:14:23.979Z,101495.09
2022-08-08T12:15:42.178Z,101493.53
2022-08-08T12:16:52.470Z,101491.41
2022-08-08T12:17:54.749Z,101493.09
2022-08-08T12:18:57.023Z,101489.44
2022-08-08T12:19:58.669Z,101485.16
2022-08-08T12:21:00.474Z,101492.78
2022-08-08T12:22:12.815Z,101494.69
2022-08-08T12:23:40.069Z,101487.03
2022-08-08T12:24:53.667Z,101486.38
2022-08-08T12:26:10.751Z,101482.50
2022-08-08T12:27:19.956Z,101486.75
2022-08-08T12:28:22.667Z,101487.31
2022-08-08T12:29:41.033Z,101488.13
2022-08-08T12:30:48.039Z,101486.56
2022-08-08T12:32:13.485Z,101491.19
2022-08-08T12:33:24.173Z,101483.69
2022-08-08T12:34:41.746Z,101485.06
2022-08-08T12:35:52.557Z,101488.25
2022-08-08T12:37:05.527Z,101486.63
2022-08-08T12:38:17.700Z,101489.66
2022-08-08T12:39:56.172Z,101488.59
2022-08-08T12:40:58.467Z,101488.06
2022-08-08T12:42:04.949Z,101480.81
2022-08-08T12:43:06.946Z,101477.72
2022-08-08T12:44:14.433Z,101480.63
2022-08-08T12:45:57.921Z,101476.88
2022-08-08T12:47:09.001Z,101470.72
2022-08-08T12:48:37.213Z,101465.13
2022-08-08T12:49:43.693Z,101472.31
2022-08-08T12:50:49.507Z,101469.16
2022-08-08T12:52:00.034Z,101475.34
2022-08-08T12:53:02.609Z,101475.66
2022-08-08T12:54:24.561Z,101477.44
2022-08-08T12:55:35.688Z,101474.16
2022-08-08T12:56:49.975Z,101473.59
2022-08-08T12:57:56.910Z,101474.09
2022-08-08T12:58:59.206Z,101466.66
2022-08-08T13:00:05.071Z,101466.00
2022-08-08T13:01:15.617Z,101466.69
2022-08-08T13:02:28.266Z,101466.00
2022-08-08T13:03:34.278Z,101465.13
2022-08-08T13:04:38.418Z,101469.78
2022-08-08T13:06:03.917Z,101461.84
2022-08-08T13:07:15.746Z,101467.19
2022-08-08T13:08:22.120Z,101464.50
2022-08-08T13:10:05.746Z,101459.22
2022-08-08T13:12:24.751Z,101459.88
2022-08-08T13:13:05.891Z,101458.19
2022-08-08T13:14:15.314Z,101461.72
2022-08-08T13:15:20.210Z,101459.69
2022-08-08T13:16:25.699Z,101462.41
2022-08-08T13:18:09.148Z,101449.91
2022-08-08T13:18:57.541Z,101455.00
2022-08-08T13:20:12.237Z,101452.72
2022-08-08T13:21:16.432Z,101459.31
2022-08-08T13:22:18.837Z,101454.19
2022-08-08T13:23:30.897Z,101449.38
2022-08-08T13:24:45.093Z,101457.97
2022-08-08T13:25:59.057Z,101455.53
2022-08-08T13:27:04.635Z,101457.59
2022-08-08T13:28:06.624Z,101457.44
2022-08-08T13:29:11.187Z,101456.19
2022-08-08T13:30:18.859Z,101452.16
2022-08-08T13:31:22.942Z,101451.66
2022-08-08T13:32:27.353Z,101459.72
2022-08-08T13:33:41.998Z,101456.16
2022-08-08T13:34:44.560Z,101456.28
2022-08-08T13:35:55.337Z,101454.78
2022-08-08T13:36:58.548Z,101461.31
2022-08-08T13:38:06.417Z,101459.19
2022-08-08T13:39:09.773Z,101459.81
2022-08-08T13:40:17.787Z,101459.94
2022-08-08T13:41:37.859Z,101469.72
2022-08-08T13:42:42.176Z,101463.31
2022-08-08T13:43:47.115Z,101458.81
2022-08-08T13:44:56.307Z,101461.47
2022-08-08T13:46:26.874Z,101460.44
2022-08-08T13:47:30.519Z,101461.78
2022-08-08T13:48:43.946Z,101464.25
2022-08-08T13:50:36.351Z,101465.47
2022-08-08T13:51:37.486Z,101462.66
2022-08-08T13:52:50.615Z,101468.00
2022-08-08T13:54:00.373Z,101461.94
2022-08-08T13:55:05.958Z,101463.50
2022-08-08T13:56:11.767Z,101466.00
2022-08-08T13:57:16.025Z,101458.59
2022-08-08T13:58:20.731Z,101459.44
2022-08-08T13:59:49.059Z,101459.47
2022-08-08T14:00:51.180Z,101461.94
2022-08-08T14:01:57.893Z,101457.59
2022-08-08T14:03:20.116Z,101460.09
2022-08-08T14:04:27.607Z,101459.84
2022-08-08T14:05:34.469Z,101464.13
2022-08-08T14:06:45.483Z,101459.25
2022-08-08T14:07:52.323Z,101456.22
2022-08-08T14:08:56.841Z,101446.84
2022-08-08T14:10:17.004Z,101439.38
2022-08-08T14:11:24.736Z,101445.16
2022-08-08T14:12:29.227Z,101450.94
2022-08-08T14:13:34.159Z,101453.44
2022-08-08T14:14:46.257Z,101450.03
2022-08-08T14:15:50.390Z,101457.06
2022-08-08T14:16:52.289Z,101446.03
2022-08-08T14:18:36.379Z,101448.00
2022-08-08T14:19:57.072Z,101443.50
2022-08-08T14:21:12.629Z,101443.91
2022-08-08T14:22:21.415Z,101449.97
2022-08-08T14:24:07.069Z,101449.53
2022-08-08T14:25:00.545Z,101457.63
2022-08-08T14:26:11.071Z,101453.13
2022-08-08T14:27:27.126Z,101461.38